createdAt,value
2023-03-21T08:32:19.102Z,101334.63
2023-03-21T08:35:24.088Z,101339.84
2023-03-21T08:38:30.219Z,101334.50
2023-03-21T08:41:37.251Z,101331.00
2023-03-21T08:44:41.651Z,101343.16
2023-03-21T08:47:47.152Z,101333.47
2023-03-21T08:50:51.756Z,101336.84
2023-03-21T08:53:56.700Z,101335.81
2023-03-21T08:57:01.045Z,101334.00
2023-03-21T09:00:17.742Z,101335.69
2023-03-21T09:03:22.172Z,101337.63
2023-03-21T09:06:27.510Z,101342.75
2023-03-21T09:09:32.465Z,101345.16
2023-03-21T09:12:37.322Z,101339.97
2023-03-21T09:15:41.854Z,101338.09
2023-03-21T09:18:48.894Z,101331.03
2023-03-21T09:22:00.027Z,101337.84
2023-03-21T09:25:11.789Z,101338.69
2023-03-21T09:28:18.063Z,101340.16
2023-03-21T09:31:23.622Z,101341.16
2023-03-21T09:34:31.737Z,101336.66
2023-03-21T09:37:38.476Z,101334.94
2023-03-21T09:40:53.166Z,101334.13
2023-03-21T09:44:24.757Z,101336.00
2023-03-21T09:47:37.739Z,101335.75
2023-03-21T09:50:43.606Z,101326.75
2023-03-21T09:53:51.651Z,101338.84
2023-03-21T09:57:01.287Z,101331.59
2023-03-21T10:00:19.338Z,101333.94
2023-03-21T10:03:30.597Z,101331.03
2023-03-21T10:06:41.165Z,101335.41
2023-03-21T10:09:48.395Z,101333.34
2023-03-21T10:12:56.402Z,101329.94
2023-03-21T10:16:22.023Z,101331.63
2023-03-21T10:19:28.666Z,101329.06
2023-03-21T10:22:34.826Z,101326.28
2023-03-21T10:25:50.616Z,101330.63
2023-03-21T10:29:00.004Z,101321.25
2023-03-21T10:32:05.461Z,101320.19
2023-03-21T10:35:13.995Z,101325.44
2023-03-21T10:38:23.509Z,101322.53
2023-03-21T10:41:28.212Z,101316.78
2023-03-21T10:44:35.643Z,101316.78
2023-03-21T10:47:42.644Z,101308.03
2023-03-21T10:50:56.369Z,101306.28
2023-03-21T10:54:13.122Z,101305.28
2023-03-21T10:57:23.285Z,101303.59
2023-03-21T11:00:41.390Z,101302.56
2023-03-21T11:03:48.594Z,101293.13
2023-03-21T11:07:02.182Z,101297.50
2023-03-21T11:10:29.250Z,101291.28
2023-03-21T11:13:42.876Z,101291.16
2023-03-21T11:16:49.667Z,101280.06
2023-03-21T11:20:05.693Z,101288.75
2023-03-21T11:23:30.043Z,101291.03
2023-03-21T11:26:37.750Z,101283.00
2023-03-21T11:29:50.227Z,101282.09
2023-03-21T11:33:03.668Z,101270.53
2023-03-21T11:36:19.207Z,101277.50
2023-03-21T11:39:34.386Z,101269.56
2023-03-21T11:42:45.767Z,101279.06
2023-03-21T11:46:16.698Z,101266.66
2023-03-21T11:49:26.487Z,101262.47
2023-03-21T11:53:04.715Z,101254.78
2023-03-21T11:56:26.518Z,101251.16
2023-03-21T12:00:14.414Z,101245.22
2023-03-21T12:03:47.291Z,101243.34
2023-03-21T12:07:03.783Z,101233.91
2023-03-21T12:10:52.337Z,101230.16
2023-03-21T12:14:53.568Z,101230.09
2023-03-21T12:18:11.913Z,101227.47
2023-03-21T12:21:35.007Z,101221.28
2023-03-21T12:25:10.579Z,101215.25
2023-03-21T12:29:38.243Z,101207.06
2023-03-21T12:33:13.704Z,101199.97
2023-03-21T12:36:24.632Z,101200.03
2023-03-21T12:39:36.460Z,101197.75
2023-03-21T12:42:57.356Z,101199.47
2023-03-21T12:46:09.596Z,101180.44
2023-03-21T12:49:38.484Z,101172.63
2023-03-21T12:52:48.316Z,101168.94
2023-03-21T12:55:57.315Z,101165.41
2023-03-21T12:59:11.105Z,101155.59
2023-03-21T13:02:40.711Z,101145.22
2023-03-21T13:06:03.723Z,101150.63
2023-03-21T13:09:28.554Z,101140.13
2023-03-21T13:13:13.803Z,101139.41
2023-03-21T13:16:36.722Z,101129.63
2023-03-21T13:19:57.592Z,101120.06
2023-03-21T13:23:03.640Z,101115.91
2023-03-21T13:26:11.336Z,101111.31
2023-03-21T13:29:21.753Z,101113.03
2023-03-21T13:32:34.457Z,101114.56
2023-03-21T13:35:46.016Z,101110.19
2023-03-21T13:38:54.858Z,101111.88
2023-03-21T13:42:06.147Z,101105.09
2023-03-21T13:45:23.537Z,101096.06
2023-03-21T13:49:00.681Z,101101.53
2023-03-21T13:52:12.213Z,101095.34
2023-03-21T13:55:49.760Z,101101.00
2023-03-21T13:59:02.729Z,101095.28
2023-03-21T14:02:34.145Z,101091.03
2023-03-21T14:05:41.330Z,101086.78
2023-03-21T14:08:49.002Z,101078.97
2023-03-21T14:12:18.749Z,101080.53
2023-03-21T14:15:55.886Z,101081.91
2023-03-21T14:19:05.582Z,101069.38
2023-03-21T14:22:13.675Z,101073.84
2023-03-21T14:25:34.026Z,101060.84
2023-03-21T14:28:51.107Z,101067.94
2023-03-21T14:31:57.660Z,101062.63
2023-03-21T14:35:02.819Z,101064.47
2023-03-21T14:38:22.034Z,101058.38
2023-03-21T14:41:30.010Z,101056.13
2023-03-21T14:44:52.860Z,101049.13
2023-03-21T14:48:07.660Z,101055.19
2023-03-21T14:51:12.714Z,101051.00
2023-03-21T14:54:19.788Z,101042.75
2023-03-21T14:57:29.036Z,101043.69
2023-03-21T15:00:35.587Z,101039.34
2023-03-21T15:03:40.798Z,101036.22
2023-03-21T15:06:57.944Z,101017.56
2023-03-21T15:10:08.584Z,101015.66
2023-03-21T15:13:20.774Z,101012.84
2023-03-21T15:16:25.932Z,101018.53
2023-03-21T15:19:38.010Z,101003.47
2023-03-21T15:22:51.105Z,101000.34
2023-03-21T15:25:56.512Z,100989.91
2023-03-21T15:29:00.861Z,100986.44
2023-03-21T15:32:12.661Z,100988.81
2023-03-21T15:35:25.342Z,100984.53
2023-03-21T15:41:45.579Z,100973.41
2023-03-21T15:45:16.587Z,100980.50
2023-03-21T15:49:08.920Z,100971.75
2023-03-21T15:57:29.699Z,100960.63
2023-03-21T16:01:28.674Z,100961.53
2023-03-21T16:05:35.483Z,100957.22
2023-03-21T16:10:00.913Z,100950.25
2023-03-21T16:18:38.426Z,100957.34
2023-03-21T16:39:26.813Z,100933.88
2023-03-21T16:42:50.945Z,100926.41
2023-03-21T16:57:13.337Z,100915.16
2023-03-21T17:09:30.562Z,100884.38
2023-03-21T17:12:48.879Z,100900.31
2023-03-21T17:19:54.729Z,100904.56
2023-03-21T17:47:49.004Z,100884.41
2023-03-21T17:51:37.277Z,100891.88
2023-03-21T17:55:27.276Z,100881.59
2023-03-21T18:02:07.095Z,100877.97
2023-03-21T18:08:25.370Z,100879.94
2023-03-21T18:11:49.175Z,100882.56
2023-03-21T18:15:52.845Z,100888.75
2023-03-21T18:19:55.867Z,100881.94
2023-03-21T18:44:09.346Z,100881.28
2023-03-21T18:48:06.804Z,100870.66
2023-03-21T18:57:33.913Z,100887.19
2023-03-21T19:00:41.265Z,100886.28
2023-03-21T19:04:30.190Z,100882.63
2023-03-21T19:45:21.440Z,100867.41
2023-03-21T19:53:58.636Z,100868.16
2023-03-21T20:02:34.961Z,100848.16
2023-03-21T20:05:41.366Z,100850.56
2023-03-21T20:09:34.051Z,100850.28
2023-03-21T20:12:12.200Z,100849.47
2023-03-21T20:15:19.974Z,100846.78
2023-03-21T20:18:28.958Z,100847.66
2023-03-21T20:21:45.286Z,100845.03
2023-03-21T20:24:52.771Z,100845.59
2023-03-21T20:28:14.533Z,100839.66
2023-03-21T20:31:20.356Z,100842.28
2023-03-21T20:34:24.639Z,100844.03
2023-03-21T20:37:32.754Z,100843.06
2023-03-21T20:40:40.191Z,100846.44
2023-03-21T20:44:36.402Z,100850.16
2023-03-21T20:47:17.125Z,100848.38
2023-03-21T20:50:23.063Z,100843.06
2023-03-21T20:53:37.859Z,100844.81
2023-03-21T20:56:44.412Z,100843.91
2023-03-21T20:59:49.583Z,100851.84
2023-03-21T21:06:33.038Z,100845.69
2023-03-21T21:09:40.286Z,100839.50
2023-03-21T21:12:45.414Z,100844.75
2023-03-21T21:15:54.594Z,100834.25
2023-03-21T21:19:00.878Z,100840.38
2023-03-21T21:22:06.516Z,100833.41
2023-03-21T21:25:11.405Z,100825.47
2023-03-21T21:28:15.839Z,100821.13
2023-03-21T21:31:21.602Z,100825.59
2023-03-21T21:34:26.669Z,100828.22
2023-03-21T21:37:33.994Z,100819.50
2023-03-21T21:40:38.598Z,100815.13
2023-03-21T21:43:43.226Z,100816.81
2023-03-21T21:46:47.974Z,100818.56
2023-03-21T21:49:52.884Z,100813.44
2023-03-21T21:52:57.842Z,100811.50
2023-03-21T21:56:06.503Z,100804.75
2023-03-21T21:59:11.042Z,100809.88
2023-03-21T22:02:18.131Z,100805.63
2023-03-21T22:05:25.519Z,100798.47
2023-03-21T22:08:31.302Z,100793.16
2023-03-21T22:11:37.281Z,100787.34
2023-03-21T22:14:42.056Z,100788.94
2023-03-21T22:17:46.434Z,100783.63
2023-03-21T22:20:54.867Z,100779.22
2023-03-21T22:23:59.476Z,100774.38
2023-03-21T22:27:04.470Z,100770.31
2023-03-21T22:30:13.820Z,100772.25
2023-03-21T22:33:19.957Z,100775.84
2023-03-21T22:36:24.983Z,100769.91
2023-03-21T22:39:29.375Z,100763.94
2023-03-21T22:42:39.664Z,100755.47
2023-03-21T22:45:43.823Z,100752.00
2023-03-21T22:48:48.611Z,100749.44
2023-03-21T22:51:54.340Z,100745.25
2023-03-21T22:55:00.089Z,100743.72
2023-03-21T22:58:09.370Z,100732.41
2023-03-21T23:01:14.225Z,100735.34
2023-03-21T23:04:20.275Z,100735.34
2023-03-21T23:07:24.681Z,100736.25
2023-03-21T23:10:29.982Z,100725.97
2023-03-21T23:13:34.318Z,100722.44
2023-03-21T23:16:38.736Z,100723.44
2023-03-21T23:19:43.382Z,100722.84
2023-03-21T23:22:47.586Z,100726.31
2023-03-21T23:25:52.475Z,100724.78
2023-03-21T23:28:57.497Z,100721.44
2023-03-21T23:32:01.889Z,100720.72
2023-03-21T23:35:07.281Z,100723.47
2023-03-21T23:38:11.918Z,100719.38
2023-03-21T23:41:23.182Z,100716.81
2023-03-21T23:44:28.999Z,100717.00
2023-03-21T23:47:39.942Z,100707.53
2023-03-21T23:50:44.782Z,100705.69
2023-03-21T23:53:50.137Z,100699.53
2023-03-21T23:56:57.641Z,100704.75
